Time;durP1;ratioP1;P1;durP2;ratioP2;P2;SDS_P1;SDS_P2;PMS_P1;PMS_P2;Temp;Humidity;BMP_temperature;BMP_pressure;BME280_temperature;BME280_humidity;BME280_pressure;Samples;Min_cycle;Max_cycle;Signal;HPM_P1;HPM_P2
2024/01/11 00:00:09;;;;;;;0.60;0.60;;;-4.30;99.90;;;;;;5050673;28;20263;-72
2024/01/11 00:02:35;;;;;;;0.27;0.27;;;-4.40;99.90;;;;;;5050491;28;20193;-72
2024/01/11 00:05:00;;;;;;;0.43;0.43;;;-4.40;99.90;;;;;;5050592;28;20208;-72
2024/01/11 00:07:26;;;;;;;0.30;0.23;;;-4.40;99.90;;;;;;5050797;28;20668;-73
2024/01/11 00:09:51;;;;;;;1.10;0.67;;;-4.40;99.90;;;;;;5050433;28;20680;-73
2024/01/11 00:12:17;;;;;;;0.00;0.00;;;-4.40;99.90;;;;;;5048935;28;20533;-72
2024/01/11 00:14:42;;;;;;;1.00;0.27;;;-4.40;99.90;;;;;;5050430;28;20189;-73
2024/01/11 00:17:08;;;;;;;0.17;0.17;;;-4.30;99.90;;;;;;5050617;28;20177;-73
2024/01/11 00:19:33;;;;;;;0.10;0.10;;;-4.30;99.90;;;;;;5050349;28;20194;-72
2024/01/11 00:21:59;;;;;;;0.20;0.20;;;-4.30;99.90;;;;;;5050642;28;20217;-73
2024/01/11 00:24:24;;;;;;;0.60;0.60;;;-4.30;99.90;;;;;;5050242;28;20630;-72
2024/01/11 00:26:50;;;;;;;0.77;0.77;;;-4.30;99.90;;;;;;5050210;28;20224;-72
2024/01/11 00:29:15;;;;;;;0.43;0.43;;;-4.40;99.90;;;;;;5050498;28;20181;-72
2024/01/11 00:31:41;;;;;;;0.27;0.27;;;-4.40;99.90;;;;;;5050610;28;20174;-72
2024/01/11 00:34:06;;;;;;;0.10;0.10;;;-4.40;99.90;;;;;;5050535;28;20177;-72
2024/01/11 00:36:36;;;;;;;0.97;0.97;;;-4.40;99.90;;;;;;5050327;28;20208;-71
2024/01/11 00:39:02;;;;;;;0.10;0.10;;;-4.50;99.90;;;;;;5050553;28;20573;-72
2024/01/11 00:41:27;;;;;;;0.47;0.47;;;-4.50;99.90;;;;;;5049164;28;20237;-72
2024/01/11 00:43:53;;;;;;;0.27;0.27;;;-4.50;99.90;;;;;;5053197;28;20225;-72
2024/01/11 00:46:19;;;;;;;0.20;0.20;;;-4.50;99.90;;;;;;5054515;28;20767;-72
2024/01/11 00:48:44;;;;;;;0.10;0.10;;;-4.50;99.90;;;;;;5053787;28;20203;-72
2024/01/11 00:51:10;;;;;;;0.67;0.67;;;-4.50;99.90;;;;;;5054295;28;20276;-72
2024/01/11 00:53:35;;;;;;;0.40;0.40;;;-4.50;99.90;;;;;;5054177;28;20220;-72
2024/01/11 00:56:01;;;;;;;0.40;0.40;;;-4.50;99.90;;;;;;5052879;28;20271;-72
2024/01/11 00:58:26;;;;;;;0.20;0.20;;;-4.50;99.90;;;;;;5054158;28;20181;-72
2024/01/11 01:00:53;;;;;;;0.73;0.73;;;-4.50;99.90;;;;;;5053830;28;20533;-72
2024/01/11 01:03:20;;;;;;;0.50;0.50;;;-4.50;99.90;;;;;;5053832;28;20182;-72
2024/01/11 01:05:46;;;;;;;0.53;0.53;;;-4.60;99.90;;;;;;5053856;28;20196;-72
2024/01/11 01:08:12;;;;;;;0.20;0.20;;;-4.60;99.90;;;;;;5054016;28;20185;-72
2024/01/11 01:10:37;;;;;;;0.87;0.67;;;-4.60;99.90;;;;;;5053443;28;20272;-72
2024/01/11 01:13:04;;;;;;;0.60;0.60;;;-4.60;99.90;;;;;;5053075;28;20264;-72
2024/01/11 01:15:29;;;;;;;0.07;0.07;;;-4.60;99.90;;;;;;5053852;28;20683;-72
2024/01/11 01:17:55;;;;;;;0.57;0.57;;;-4.60;99.90;;;;;;5052492;28;20181;-71
2024/01/11 01:20:20;;;;;;;0.10;0.10;;;-4.70;99.90;;;;;;5053568;28;20215;-71
2024/01/11 01:22:46;;;;;;;0.20;0.20;;;-4.70;99.90;;;;;;5054074;28;20181;-72
2024/01/11 01:25:11;;;;;;;0.20;0.20;;;-4.70;99.90;;;;;;5053484;28;20181;-71
2024/01/11 01:27:37;;;;;;;0.00;0.00;;;-4.70;99.90;;;;;;5052550;28;20699;-71
2024/01/11 01:30:03;;;;;;;0.10;0.10;;;-4.70;99.90;;;;;;5053339;28;20197;-72
2024/01/11 01:32:30;;;;;;;0.63;0.63;;;-4.70;99.90;;;;;;5053045;28;20186;-71
2024/01/11 01:34:55;;;;;;;0.20;0.20;;;-4.70;99.90;;;;;;5052891;28;20204;-72
2024/01/11 01:37:21;;;;;;;0.40;0.40;;;-4.80;99.90;;;;;;5052726;28;20641;-72
2024/01/11 01:39:47;;;;;;;0.23;0.23;;;-4.80;99.90;;;;;;5053001;28;20181;-72
2024/01/11 01:42:12;;;;;;;0.10;0.10;;;-4.80;99.90;;;;;;5052779;28;20221;-72
2024/01/11 01:44:40;;;;;;;0.40;0.40;;;-4.80;99.90;;;;;;5051421;28;20212;-72
2024/01/11 01:47:07;;;;;;;0.57;0.57;;;-4.90;99.90;;;;;;5052972;28;20178;-71
2024/01/11 01:49:33;;;;;;;1.33;0.93;;;-4.90;99.90;;;;;;5051576;28;20515;-70
2024/01/11 01:51:59;;;;;;;0.13;0.13;;;-4.90;99.90;;;;;;5052787;28;20289;-71
2024/01/11 01:54:24;;;;;;;0.10;0.10;;;-4.90;99.90;;;;;;5052377;28;20212;-70
2024/01/11 01:56:51;;;;;;;0.10;0.10;;;-4.90;99.90;;;;;;5052471;28;20177;-71
2024/01/11 01:59:18;;;;;;;0.00;0.00;;;-4.90;99.90;;;;;;5052963;28;20182;-71
2024/01/11 02:01:44;;;;;;;0.00;0.00;;;-5.00;99.90;;;;;;5051415;28;20217;-71
2024/01/11 02:04:10;;;;;;;0.37;0.37;;;-5.00;99.90;;;;;;5052516;28;20517;-71
2024/01/11 02:06:37;;;;;;;0.37;0.37;;;-5.00;99.90;;;;;;5052465;28;20186;-71
2024/01/11 02:09:05;;;;;;;0.10;0.10;;;-5.00;99.90;;;;;;5051859;28;20247;-71
2024/01/11 02:11:31;;;;;;;0.50;0.50;;;-5.00;99.90;;;;;;5040599;28;20196;-72
2024/01/11 02:13:57;;;;;;;0.00;0.00;;;-4.90;99.90;;;;;;5051832;28;20182;-70
2024/01/11 02:16:23;;;;;;;0.50;0.50;;;-4.90;99.90;;;;;;5052621;28;20189;-71
2024/01/11 02:18:49;;;;;;;0.43;0.43;;;-4.90;99.90;;;;;;5051943;28;20192;-71
2024/01/11 02:21:15;;;;;;;1.20;0.97;;;-4.90;99.90;;;;;;5052296;28;20263;-71
2024/01/11 02:23:45;;;;;;;0.10;0.10;;;-4.90;99.90;;;;;;5051961;28;20199;-72
2024/01/11 02:26:12;;;;;;;0.37;0.37;;;-4.90;99.90;;;;;;5051892;28;20192;-72
2024/01/11 02:28:37;;;;;;;0.03;0.03;;;-4.90;99.90;;;;;;5048597;28;20186;-72
2024/01/11 02:31:03;;;;;;;0.23;0.23;;;-4.90;99.90;;;;;;5051780;28;20255;-72
2024/01/11 02:33:28;;;;;;;0.00;0.00;;;-4.80;99.90;;;;;;5050409;28;20649;-72
2024/01/11 02:35:55;;;;;;;0.47;0.47;;;-4.80;99.90;;;;;;5050351;28;20186;-72
2024/01/11 02:38:21;;;;;;;0.30;0.30;;;-4.80;99.90;;;;;;5051844;28;20174;-72
2024/01/11 02:40:48;;;;;;;0.10;0.10;;;-4.80;99.90;;;;;;5051289;28;20225;-71
2024/01/11 02:43:13;;;;;;;0.10;0.10;;;-4.80;99.90;;;;;;5050849;28;20638;-72
2024/01/11 02:45:39;;;;;;;0.53;0.53;;;-4.80;99.90;;;;;;5051829;28;20212;-72
2024/01/11 02:48:04;;;;;;;0.27;0.27;;;-4.80;99.90;;;;;;5051961;28;20174;-72
2024/01/11 02:50:30;;;;;;;0.60;0.60;;;-4.70;99.90;;;;;;5051424;28;20186;-71
2024/01/11 02:52:55;;;;;;;0.67;0.67;;;-4.70;99.90;;;;;;5051058;28;20261;-71
2024/01/11 02:55:21;;;;;;;0.30;0.30;;;-4.70;99.90;;;;;;5051508;28;20273;-71
2024/01/11 02:57:46;;;;;;;0.13;0.13;;;-4.70;99.90;;;;;;5050441;28;20185;-72
2024/01/11 03:00:12;;;;;;;0.10;0.10;;;-4.60;99.90;;;;;;5050316;28;20668;-71
2024/01/11 03:02:38;;;;;;;0.00;0.00;;;-4.60;99.90;;;;;;5051488;28;20226;-71
2024/01/11 03:05:04;;;;;;;0.93;0.93;;;-4.60;99.90;;;;;;5049793;28;20250;-72
2024/01/11 03:07:30;;;;;;;0.20;0.20;;;-4.60;99.90;;;;;;5050414;28;20200;-71
2024/01/11 03:09:56;;;;;;;0.10;0.10;;;-4.50;99.90;;;;;;5051441;28;20177;-70
2024/01/11 03:12:22;;;;;;;0.63;0.63;;;-4.50;99.90;;;;;;5051079;28;20185;-70
2024/01/11 03:14:47;;;;;;;0.20;0.20;;;-4.40;99.90;;;;;;5051074;28;20186;-71
2024/01/11 03:17:13;;;;;;;0.23;0.23;;;-4.40;99.90;;;;;;5033202;28;20188;-70
2024/01/11 03:19:42;;;;;;;0.10;0.10;;;-4.40;99.90;;;;;;5051269;28;20192;-70
2024/01/11 03:22:07;;;;;;;0.27;0.27;;;-4.40;99.90;;;;;;5051286;28;20232;-71
2024/01/11 03:24:37;;;;;;;0.20;0.20;;;-4.40;99.90;;;;;;5051257;28;20186;-70
2024/01/11 03:27:02;;;;;;;0.73;0.73;;;-4.40;99.90;;;;;;5050920;28;20182;-72
2024/01/11 03:29:28;;;;;;;0.00;0.00;;;-4.40;99.90;;;;;;5051332;28;20257;-71
2024/01/11 03:31:53;;;;;;;0.30;0.30;;;-4.40;99.90;;;;;;5049466;28;20201;-72
2024/01/11 03:34:19;;;;;;;0.27;0.27;;;-4.40;99.90;;;;;;5050889;28;20748;-71
2024/01/11 03:36:44;;;;;;;0.40;0.40;;;-4.40;99.90;;;;;;5050475;28;20182;-71
2024/01/11 03:39:10;;;;;;;0.53;0.53;;;-4.40;99.90;;;;;;5050838;28;20256;-71
2024/01/11 03:41:35;;;;;;;0.00;0.00;;;-4.50;99.90;;;;;;5050402;28;20229;-70
2024/01/11 03:44:01;;;;;;;0.30;0.30;;;-4.50;99.90;;;;;;5051062;28;20205;-71
2024/01/11 03:46:27;;;;;;;0.10;0.10;;;-4.50;99.90;;;;;;5050764;28;20193;-71
2024/01/11 03:48:52;;;;;;;0.20;0.20;;;-4.50;99.90;;;;;;5050131;28;20185;-71
2024/01/11 03:51:18;;;;;;;0.30;0.30;;;-4.50;99.90;;;;;;5052213;28;20524;-70
2024/01/11 03:53:43;;;;;;;0.40;0.40;;;-4.50;99.90;;;;;;5051800;28;20190;-69
2024/01/11 03:56:10;;;;;;;0.97;0.57;;;-4.60;99.90;;;;;;5053551;28;20173;-71
2024/01/11 03:58:36;;;;;;;0.30;0.30;;;-4.50;99.90;;;;;;5052060;28;20190;-72
2024/01/11 04:01:02;;;;;;;0.10;0.10;;;-4.60;99.90;;;;;;5051097;28;20213;-72
2024/01/11 04:03:27;;;;;;;0.10;0.10;;;-4.50;99.90;;;;;;5051330;28;20200;-72
2024/01/11 04:05:53;;;;;;;0.33;0.33;;;-4.50;99.90;;;;;;5049303;28;20189;-72
2024/01/11 04:08:19;;;;;;;0.20;0.20;;;-4.50;99.90;;;;;;5051749;28;20223;-72
2024/01/11 04:10:44;;;;;;;0.33;0.33;;;-4.50;99.90;;;;;;5051294;28;20181;-72
2024/01/11 04:13:10;;;;;;;0.30;0.30;;;-4.50;99.90;;;;;;5050880;28;20268;-72
2024/01/11 04:15:35;;;;;;;0.10;0.10;;;-4.50;99.90;;;;;;5049859;28;20265;-72
2024/01/11 04:18:01;;;;;;;0.10;0.10;;;-4.60;99.90;;;;;;5052354;28;20181;-73
2024/01/11 04:20:27;;;;;;;0.13;0.13;;;-4.60;99.90;;;;;;5054511;28;20562;-72
2024/01/11 04:22:52;;;;;;;0.40;0.40;;;-4.60;99.90;;;;;;5053035;28;20280;-73
2024/01/11 04:25:18;;;;;;;0.53;0.40;;;-4.60;99.90;;;;;;5053778;28;20236;-73
2024/01/11 04:27:44;;;;;;;0.47;0.30;;;-4.60;99.90;;;;;;5052580;28;20181;-73
2024/01/11 04:30:09;;;;;;;0.67;0.67;;;-4.60;99.90;;;;;;5053033;28;20542;-73
2024/01/11 04:32:35;;;;;;;0.40;0.40;;;-4.60;99.90;;;;;;5053865;28;20197;-73
2024/01/11 04:35:01;;;;;;;0.10;0.10;;;-4.60;99.90;;;;;;5053064;28;20189;-74
2024/01/11 04:37:26;;;;;;;0.87;0.77;;;-4.60;99.90;;;;;;5053656;28;20181;-75
2024/01/11 04:39:52;;;;;;;1.03;1.03;;;-4.60;99.90;;;;;;5054375;28;20310;-76
2024/01/11 04:42:17;;;;;;;0.10;0.10;;;-4.60;99.90;;;;;;5053485;28;20232;-73
2024/01/11 04:44:43;;;;;;;0.63;0.63;;;-4.60;99.90;;;;;;5053565;28;20625;-67
2024/01/11 04:47:08;;;;;;;0.57;0.57;;;-4.60;99.90;;;;;;5053857;28;20197;-65
2024/01/11 04:49:34;;;;;;;0.63;0.63;;;-4.60;99.90;;;;;;5053492;28;20181;-66
2024/01/11 04:51:59;;;;;;;0.20;0.20;;;-4.70;99.90;;;;;;5054630;28;20262;-67
2024/01/11 04:54:25;;;;;;;0.17;0.17;;;-4.70;99.90;;;;;;5054363;28;20267;-65
2024/01/11 04:56:50;;;;;;;0.23;0.23;;;-4.70;99.90;;;;;;5054020;28;20185;-64
2024/01/11 04:59:16;;;;;;;0.20;0.20;;;-4.70;99.90;;;;;;5054043;28;20178;-65
2024/01/11 05:01:41;;;;;;;0.13;0.13;;;-4.70;99.90;;;;;;5053767;28;20601;-70
2024/01/11 05:04:08;;;;;;;0.07;0.07;;;-4.70;99.90;;;;;;5053623;28;20265;-66
2024/01/11 05:06:34;;;;;;;0.40;0.40;;;-4.70;99.90;;;;;;5053790;28;20192;-66
2024/01/11 05:08:59;;;;;;;0.67;0.67;;;-4.70;99.90;;;;;;5053688;28;20178;-69
2024/01/11 05:11:26;;;;;;;0.20;0.20;;;-4.80;99.90;;;;;;5051991;28;20185;-72
2024/01/11 05:13:52;;;;;;;0.00;0.00;;;-4.80;99.90;;;;;;5038140;28;20177;-71
2024/01/11 05:16:18;;;;;;;0.43;0.43;;;-4.70;99.90;;;;;;5052113;28;20255;-71
2024/01/11 05:18:44;;;;;;;0.20;0.20;;;-4.60;99.90;;;;;;5051007;28;20272;-70
2024/01/11 05:21:09;;;;;;;0.10;0.10;;;-4.60;99.90;;;;;;5053000;28;20300;-71
2024/01/11 05:23:35;;;;;;;0.47;0.47;;;-4.60;99.90;;;;;;5053349;28;20177;-71
2024/01/11 05:26:00;;;;;;;0.57;0.57;;;-4.70;99.90;;;;;;5053690;28;20169;-71
2024/01/11 05:28:26;;;;;;;0.20;0.20;;;-4.70;99.90;;;;;;5053337;28;20533;-72
2024/01/11 05:30:51;;;;;;;0.33;0.33;;;-4.70;99.90;;;;;;5052851;28;20212;-71
2024/01/11 05:33:17;;;;;;;0.97;0.87;;;-4.70;99.90;;;;;;5053576;28;20215;-70
2024/01/11 05:35:42;;;;;;;0.47;0.47;;;-4.80;99.90;;;;;;5053660;28;20186;-71
2024/01/11 05:38:08;;;;;;;0.30;0.30;;;-4.80;99.90;;;;;;5053542;28;20665;-70
2024/01/11 05:40:33;;;;;;;0.20;0.20;;;-4.80;99.90;;;;;;5052781;28;20233;-70
2024/01/11 05:42:59;;;;;;;0.73;0.73;;;-4.80;99.90;;;;;;5053293;28;20287;-70
2024/01/11 05:45:24;;;;;;;1.07;1.07;;;-4.80;99.90;;;;;;5053386;28;20256;-70
2024/01/11 05:47:50;;;;;;;2.53;2.33;;;-4.80;99.90;;;;;;5052139;28;20587;-69
2024/01/11 05:50:15;;;;;;;0.10;0.10;;;-4.80;99.90;;;;;;5053357;28;20186;-70
2024/01/11 05:52:41;;;;;;;0.70;0.70;;;-4.80;99.90;;;;;;5053291;28;20188;-70
2024/01/11 05:55:07;;;;;;;1.63;1.57;;;-4.80;99.90;;;;;;5053136;28;20189;-71
2024/01/11 05:57:32;;;;;;;0.20;0.20;;;-4.80;99.90;;;;;;5053189;28;20177;-69
2024/01/11 05:59:58;;;;;;;0.50;0.50;;;-4.80;99.90;;;;;;5053153;28;20288;-71
2024/01/11 06:02:23;;;;;;;0.20;0.20;;;-4.90;99.90;;;;;;5053151;28;20182;-70
2024/01/11 06:04:49;;;;;;;0.03;0.03;;;-4.90;99.90;;;;;;5053214;28;20177;-70
2024/01/11 06:07:15;;;;;;;0.00;0.00;;;-5.00;99.90;;;;;;5053109;28;20268;-70
2024/01/11 06:09:40;;;;;;;0.30;0.30;;;-5.00;99.90;;;;;;5053071;28;20269;-70
2024/01/11 06:12:06;;;;;;;0.33;0.33;;;-5.00;99.90;;;;;;5053072;28;20511;-70
2024/01/11 06:14:31;;;;;;;0.30;0.30;;;-5.00;99.90;;;;;;5053049;28;20177;-70
2024/01/11 06:16:57;;;;;;;0.30;0.30;;;-5.00;99.90;;;;;;5052979;28;20185;-71
2024/01/11 06:19:23;;;;;;;0.83;0.83;;;-5.00;99.90;;;;;;5052936;28;20239;-70
2024/01/11 06:21:48;;;;;;;0.10;0.10;;;-5.00;99.90;;;;;;5052725;28;20315;-70
2024/01/11 06:24:14;;;;;;;0.10;0.10;;;-5.00;99.90;;;;;;5052754;28;20272;-70
2024/01/11 06:26:40;;;;;;;0.10;0.10;;;-5.00;99.90;;;;;;5052843;28;20207;-70
2024/01/11 06:29:05;;;;;;;0.00;0.00;;;-5.00;99.90;;;;;;5052767;28;20173;-70
2024/01/11 06:31:31;;;;;;;0.10;0.10;;;-5.00;99.90;;;;;;5052606;28;20231;-70
2024/01/11 06:33:56;;;;;;;0.20;0.20;;;-5.00;99.90;;;;;;5052260;28;20186;-70
2024/01/11 06:36:22;;;;;;;0.23;0.23;;;-5.00;99.90;;;;;;5052588;28;20182;-70
2024/01/11 06:38:47;;;;;;;1.43;0.20;;;-5.10;99.90;;;;;;5052517;28;20237;-70
2024/01/11 06:41:14;;;;;;;0.47;0.47;;;-5.00;99.90;;;;;;5052231;28;20320;-71
2024/01/11 06:43:39;;;;;;;2.00;0.87;;;-5.00;99.90;;;;;;5052374;28;20177;-70
2024/01/11 06:46:05;;;;;;;0.27;0.27;;;-5.00;99.90;;;;;;5052504;28;20181;-70
2024/01/11 06:48:32;;;;;;;0.80;0.80;;;-5.10;99.90;;;;;;5052264;28;20178;-71
2024/01/11 06:50:57;;;;;;;0.20;0.20;;;-5.10;99.90;;;;;;5052046;28;20181;-71
2024/01/11 06:53:23;;;;;;;0.50;0.50;;;-5.00;99.90;;;;;;5052195;28;20235;-70
2024/01/11 06:55:48;;;;;;;0.20;0.20;;;-5.00;99.90;;;;;;5052097;28;20505;-70
2024/01/11 06:58:16;;;;;;;0.87;0.87;;;-5.00;99.90;;;;;;5052139;28;20170;-71
2024/01/11 07:00:43;;;;;;;0.53;0.53;;;-5.00;99.90;;;;;;5050593;28;20276;-71
2024/01/11 07:03:10;;;;;;;0.20;0.07;;;-5.00;99.90;;;;;;5050791;28;20169;-70
2024/01/11 07:05:37;;;;;;;0.97;0.93;;;-5.00;99.90;;;;;;5051736;28;20234;-70
2024/01/11 07:08:04;;;;;;;0.17;0.17;;;-5.00;99.90;;;;;;5051795;28;20260;-70
2024/01/11 07:10:29;;;;;;;0.37;0.37;;;-5.00;99.90;;;;;;5051412;28;20177;-71
2024/01/11 07:12:55;;;;;;;0.10;0.10;;;-4.90;99.90;;;;;;5049664;28;20196;-70
2024/01/11 07:15:20;;;;;;;0.10;0.10;;;-5.00;99.90;;;;;;5051548;28;20319;-70
2024/01/11 07:17:46;;;;;;;0.30;0.30;;;-4.90;99.90;;;;;;5051622;28;20212;-69
2024/01/11 07:20:11;;;;;;;0.00;0.00;;;-4.90;99.90;;;;;;5051746;28;20181;-70
2024/01/11 07:22:37;;;;;;;0.73;0.73;;;-5.00;99.90;;;;;;5051460;28;20193;-69
2024/01/11 07:25:03;;;;;;;0.10;0.10;;;-4.90;99.90;;;;;;5051437;28;20708;-70
2024/01/11 07:27:29;;;;;;;0.00;0.00;;;-4.90;99.90;;;;;;5051690;28;20534;-70
2024/01/11 07:29:55;;;;;;;0.20;0.20;;;-4.90;99.90;;;;;;5051228;28;20181;-70
2024/01/11 07:32:20;;;;;;;0.37;0.37;;;-4.90;99.90;;;;;;5050911;28;20177;-70
2024/01/11 07:34:46;;;;;;;0.27;0.27;;;-5.00;99.90;;;;;;5051122;28;20185;-70
2024/01/11 07:37:11;;;;;;;0.30;0.30;;;-5.00;99.90;;;;;;5051222;28;20235;-71
2024/01/11 07:39:37;;;;;;;0.20;0.20;;;-5.00;99.90;;;;;;5051039;28;20323;-70
2024/01/11 07:42:03;;;;;;;0.20;0.20;;;-5.00;99.90;;;;;;5050930;28;20237;-71
2024/01/11 07:44:28;;;;;;;0.30;0.30;;;-4.90;99.90;;;;;;5051225;28;20178;-70
2024/01/11 07:46:54;;;;;;;0.17;0.17;;;-4.90;99.90;;;;;;5050963;28;20181;-70
2024/01/11 07:49:20;;;;;;;0.20;0.20;;;-4.90;99.90;;;;;;5051089;28;20622;-70
2024/01/11 07:51:45;;;;;;;0.00;0.00;;;-4.80;99.90;;;;;;5050997;28;20760;-70
2024/01/11 07:54:12;;;;;;;0.20;0.20;;;-4.80;99.90;;;;;;5051044;28;20268;-70
2024/01/11 07:56:37;;;;;;;0.10;0.10;;;-4.70;99.90;;;;;;5050886;28;20656;-71
2024/01/11 07:59:03;;;;;;;0.33;0.33;;;-4.70;99.90;;;;;;5051021;28;20177;-70
2024/01/11 08:01:28;;;;;;;0.30;0.30;;;-4.70;99.90;;;;;;5050922;28;20208;-71
2024/01/11 08:03:54;;;;;;;0.77;0.77;;;-4.60;99.90;;;;;;5050914;28;20177;-70
2024/01/11 08:06:19;;;;;;;0.40;0.40;;;-4.50;99.90;;;;;;5051137;28;20181;-70
2024/01/11 08:08:51;;;;;;;0.53;0.53;;;-4.50;99.90;;;;;;5050903;28;20180;-71
2024/01/11 08:11:16;;;;;;;0.33;0.30;;;-4.40;99.90;;;;;;5050959;28;20254;-71
2024/01/11 08:13:42;;;;;;;0.10;0.10;;;-4.40;99.90;;;;;;5050845;28;20705;-70
2024/01/11 08:16:09;;;;;;;0.40;0.40;;;-4.40;99.90;;;;;;5051065;28;20173;-71
2024/01/11 08:18:35;;;;;;;0.23;0.23;;;-4.30;99.90;;;;;;5049722;28;20331;-71
2024/01/11 08:21:00;;;;;;;0.23;0.23;;;-4.10;99.90;;;;;;5050847;28;20321;-72
2024/01/11 08:23:26;;;;;;;0.10;0.10;;;-4.00;99.90;;;;;;5049787;28;20212;-72
2024/01/11 08:25:52;;;;;;;0.00;0.00;;;-4.00;99.90;;;;;;5051015;28;20177;-70
2024/01/11 08:28:18;;;;;;;0.60;0.40;;;-3.90;99.90;;;;;;5051180;28;20186;-71
2024/01/11 08:30:44;;;;;;;0.60;0.60;;;-3.80;99.90;;;;;;5049812;28;20269;-70
2024/01/11 08:33:09;;;;;;;0.40;0.40;;;-3.70;99.90;;;;;;5051017;28;20181;-71
2024/01/11 08:35:35;;;;;;;0.10;0.10;;;-3.60;99.90;;;;;;5050803;28;20231;-72
2024/01/11 08:38:01;;;;;;;0.53;0.53;;;-3.50;99.90;;;;;;5050926;28;20260;-71
2024/01/11 08:40:27;;;;;;;0.50;0.50;;;-3.40;99.90;;;;;;5050859;28;20215;-71
2024/01/11 08:42:52;;;;;;;0.93;0.93;;;-3.30;99.90;;;;;;5053028;28;20181;-71
2024/01/11 08:45:17;;;;;;;0.83;0.83;;;-3.20;99.90;;;;;;5052410;28;20182;-71
2024/01/11 08:47:44;;;;;;;0.50;0.43;;;-3.10;99.90;;;;;;5051398;28;20177;-71
2024/01/11 08:50:13;;;;;;;1.53;1.17;;;-3.00;99.90;;;;;;5051246;28;20556;-71
2024/01/11 08:52:39;;;;;;;0.23;0.23;;;-2.90;99.90;;;;;;5051090;28;20181;-71
2024/01/11 08:55:05;;;;;;;1.10;1.07;;;-2.80;99.90;;;;;;5051167;28;20319;-71
2024/01/11 08:57:30;;;;;;;0.53;0.53;;;-2.70;99.90;;;;;;5050832;28;20209;-71
2024/01/11 08:59:56;;;;;;;0.30;0.30;;;-2.60;99.90;;;;;;5050576;28;20703;-71
2024/01/11 09:02:22;;;;;;;0.97;0.97;;;-2.50;99.90;;;;;;5050986;28;20206;-71
2024/01/11 09:04:48;;;;;;;0.40;0.40;;;-2.40;99.90;;;;;;5051899;28;20540;-71
2024/01/11 09:07:15;;;;;;;0.60;0.60;;;-2.30;99.90;;;;;;5054456;28;20190;-71
2024/01/11 09:09:41;;;;;;;0.30;0.30;;;-2.20;99.90;;;;;;5054286;28;20180;-71
2024/01/11 09:12:07;;;;;;;0.40;0.40;;;-2.00;99.90;;;;;;5054248;28;20173;-71
2024/01/11 09:14:32;;;;;;;1.50;0.90;;;-2.00;99.90;;;;;;5054214;28;20181;-70
2024/01/11 09:16:58;;;;;;;2.60;0.93;;;-2.00;99.90;;;;;;5054157;28;20235;-71
2024/01/11 09:19:24;;;;;;;0.53;0.53;;;-2.00;99.90;;;;;;5054120;28;20178;-71
2024/01/11 09:21:49;;;;;;;0.37;0.37;;;-1.90;99.90;;;;;;5053890;28;20315;-71
2024/01/11 09:24:15;;;;;;;0.30;0.30;;;-1.90;99.90;;;;;;5052639;28;20170;-71
2024/01/11 09:26:40;;;;;;;0.10;0.10;;;-1.80;99.90;;;;;;5053851;28;20205;-71
2024/01/11 09:29:06;;;;;;;0.10;0.10;;;-1.90;99.90;;;;;;5054112;28;20174;-71
2024/01/11 09:31:31;;;;;;;0.20;0.20;;;-1.80;99.90;;;;;;5053942;28;20188;-71
2024/01/11 09:33:57;;;;;;;0.03;0.03;;;-1.80;99.90;;;;;;5053801;28;20247;-71
2024/01/11 09:36:22;;;;;;;0.50;0.50;;;-1.80;99.90;;;;;;5053905;28;20173;-71
2024/01/11 09:38:48;;;;;;;0.17;0.17;;;-1.70;99.90;;;;;;5053697;28;20178;-71
2024/01/11 09:41:14;;;;;;;0.33;0.33;;;-1.60;99.90;;;;;;5053374;28;20263;-71
2024/01/11 09:43:43;;;;;;;0.13;0.13;;;-1.50;99.90;;;;;;5053612;28;20192;-71
2024/01/11 09:46:10;;;;;;;0.10;0.10;;;-1.40;99.90;;;;;;5053620;28;20216;-71
2024/01/11 09:48:38;;;;;;;0.03;0.03;;;-1.30;99.90;;;;;;5053193;28;20185;-71
2024/01/11 09:51:11;;;;;;;0.57;0.57;;;-1.30;99.90;;;;;;5053716;28;20170;-71
2024/01/11 09:53:38;;;;;;;0.00;0.00;;;-1.20;99.90;;;;;;5053279;28;20708;-71
2024/01/11 09:56:08;;;;;;;0.00;0.00;;;-1.10;99.90;;;;;;5053415;28;20265;-71
2024/01/11 09:58:36;;;;;;;0.00;0.00;;;-1.10;99.90;;;;;;5053386;28;20204;-71
2024/01/11 10:01:02;;;;;;;0.00;0.00;;;-1.10;99.90;;;;;;5053277;28;20221;-71
2024/01/11 10:03:28;;;;;;;0.30;0.30;;;-1.20;99.90;;;;;;5053308;28;20315;-72
2024/01/11 10:05:58;;;;;;;0.20;0.20;;;-1.10;99.90;;;;;;5053030;28;20189;-71
2024/01/11 10:08:23;;;;;;;0.20;0.20;;;-1.00;99.90;;;;;;5053187;28;20182;-71
2024/01/11 10:10:49;;;;;;;0.17;0.17;;;-1.00;99.90;;;;;;5053176;28;20970;-72
2024/01/11 10:13:16;;;;;;;0.20;0.20;;;-0.90;99.90;;;;;;5053091;28;20200;-71
2024/01/11 10:15:43;;;;;;;0.00;0.00;;;-0.90;99.90;;;;;;5052735;28;20260;-71
2024/01/11 10:18:09;;;;;;;0.50;0.50;;;-0.90;99.90;;;;;;5053288;28;20182;-71
2024/01/11 10:20:34;;;;;;;0.00;0.00;;;-0.80;99.90;;;;;;5052737;28;20228;-71
2024/01/11 10:23:01;;;;;;;0.00;0.00;;;-0.70;99.90;;;;;;5053052;28;20221;-72
2024/01/11 10:25:27;;;;;;;0.45;0.45;;;-0.60;99.90;;;;;;5052800;28;20177;-72
2024/01/11 10:27:53;;;;;;;0.00;0.00;;;-0.50;99.90;;;;;;5052772;28;20243;-71
2024/01/11 10:30:22;;;;;;;1.90;1.75;;;-0.20;99.90;;;;;;5052680;28;20173;-71
2024/01/11 10:32:48;;;;;;;0.30;0.30;;;0.20;99.90;;;;;;5052632;28;20513;-71
2024/01/11 10:35:14;;;;;;;0.00;0.00;;;0.40;99.40;;;;;;5052640;28;20212;-70
2024/01/11 10:37:41;;;;;;;0.47;0.47;;;0.50;98.70;;;;;;5052640;28;20228;-71
2024/01/11 10:40:15;;;;;;;0.17;0.17;;;0.50;98.40;;;;;;5052514;28;20193;-71
2024/01/11 10:42:45;;;;;;;0.30;0.30;;;0.50;98.10;;;;;;5052724;28;20272;-71
2024/01/11 10:45:18;;;;;;;0.30;0.30;;;0.30;98.20;;;;;;5052871;28;20177;-71
2024/01/11 10:47:55;;;;;;;0.05;0.05;;;0.30;98.60;;;;;;5052574;28;20181;-71
2024/01/11 10:50:22;;;;;;;0.85;0.73;;;0.20;98.80;;;;;;5051345;28;20196;-71
2024/01/11 10:53:03;;;;;;;0.10;0.10;;;0.20;99.10;;;;;;5051293;28;20186;-71
2024/01/11 10:55:31;;;;;;;0.08;0.08;;;0.20;99.10;;;;;;5052570;28;20208;-71
2024/01/11 10:57:59;;;;;;;0.30;0.30;;;0.20;99.20;;;;;;5052527;28;20268;-71
2024/01/11 11:00:26;;;;;;;0.00;0.00;;;0.20;98.90;;;;;;5052345;28;20684;-71
2024/01/11 11:02:53;;;;;;;0.30;0.30;;;0.10;98.60;;;;;;5052481;28;20185;-71
2024/01/11 11:05:20;;;;;;;0.20;0.20;;;0.10;98.80;;;;;;5052556;28;20286;-71
2024/01/11 11:07:49;;;;;;;0.23;0.23;;;0.10;98.90;;;;;;5052353;28;20181;-71
2024/01/11 11:10:18;;;;;;;0.30;0.30;;;0.20;99.00;;;;;;5052164;28;20173;-71
2024/01/11 11:12:46;;;;;;;0.20;0.20;;;0.20;99.00;;;;;;5052204;28;20178;-70
2024/01/11 11:15:12;;;;;;;0.50;0.50;;;0.40;99.30;;;;;;5052318;28;20177;-70
2024/01/11 11:17:39;;;;;;;0.35;0.35;;;0.50;99.00;;;;;;5052079;28;20185;-71
2024/01/11 11:20:08;;;;;;;0.10;0.10;;;0.50;98.60;;;;;;5052393;28;20235;-69
2024/01/11 11:22:35;;;;;;;0.35;0.35;;;0.50;98.40;;;;;;5053864;28;20208;-69
2024/01/11 11:25:10;;;;;;;0.03;0.03;;;0.50;98.40;;;;;;5053438;28;20262;-68
2024/01/11 11:27:36;;;;;;;0.63;0.63;;;0.50;98.30;;;;;;5053245;28;20199;-69
2024/01/11 11:30:04;;;;;;;0.22;0.22;;;0.50;98.50;;;;;;5055402;28;20178;-70
2024/01/11 11:32:43;;;;;;;0.00;0.00;;;0.60;98.60;;;;;;5054164;28;20644;-70
2024/01/11 11:35:09;;;;;;;0.70;0.50;;;0.70;98.20;;;;;;5054141;28;20177;-68
2024/01/11 11:37:37;;;;;;;0.47;0.47;;;0.80;98.30;;;;;;5054065;28;20276;-69
2024/01/11 11:40:04;;;;;;;0.68;0.68;;;0.90;98.00;;;;;;5051596;28;20548;-69
2024/01/11 11:42:35;;;;;;;0.28;0.28;;;1.00;98.00;;;;;;5051883;28;20279;-69
2024/01/11 11:45:01;;;;;;;0.10;0.10;;;1.10;97.80;;;;;;5053951;28;20173;-68
2024/01/11 11:47:34;;;;;;;0.20;0.20;;;1.10;97.60;;;;;;5054732;28;20185;-69
2024/01/11 11:50:07;;;;;;;0.05;0.05;;;1.20;97.50;;;;;;5055177;28;20189;-68
2024/01/11 11:52:37;;;;;;;0.10;0.10;;;1.10;97.20;;;;;;5054512;28;20557;-69
2024/01/11 11:55:03;;;;;;;0.30;0.30;;;1.10;97.20;;;;;;5054882;28;20184;-68
2024/01/11 11:57:29;;;;;;;0.08;0.08;;;1.00;97.20;;;;;;5053493;28;20568;-68
2024/01/11 11:59:58;;;;;;;0.00;0.00;;;1.00;97.30;;;;;;5052747;28;20182;-70
2024/01/11 12:02:25;;;;;;;0.45;0.45;;;0.90;97.20;;;;;;5050433;28;20213;-71
2024/01/11 12:04:51;;;;;;;0.10;0.10;;;0.90;97.40;;;;;;5051414;28;20173;-71
2024/01/11 12:07:17;;;;;;;0.17;0.17;;;0.90;97.70;;;;;;5051485;28;20193;-71
2024/01/11 12:09:43;;;;;;;0.32;0.32;;;0.90;97.80;;;;;;5050296;28;20240;-71
2024/01/11 12:12:09;;;;;;;0.65;0.65;;;0.90;97.50;;;;;;5051574;28;20197;-71
2024/01/11 12:14:35;;;;;;;0.10;0.10;;;1.00;97.70;;;;;;5051374;28;20260;-71
2024/01/11 12:17:01;;;;;;;0.30;0.30;;;1.00;97.70;;;;;;5051473;28;20204;-71
2024/01/11 12:19:28;;;;;;;0.98;0.98;;;1.10;97.60;;;;;;5051417;28;20640;-70
2024/01/11 12:21:54;;;;;;;0.73;0.73;;;1.10;97.50;;;;;;5051154;28;20251;-70
2024/01/11 12:24:21;;;;;;;0.20;0.20;;;1.20;97.30;;;;;;5051322;28;20239;-70
2024/01/11 12:26:50;;;;;;;0.10;0.10;;;1.10;97.00;;;;;;5050038;28;20641;-71
2024/01/11 12:29:18;;;;;;;0.00;0.00;;;1.10;97.10;;;;;;5051246;28;20204;-71
2024/01/11 12:31:44;;;;;;;0.10;0.10;;;1.20;97.30;;;;;;5051115;28;20292;-70
2024/01/11 12:34:11;;;;;;;0.47;0.47;;;1.30;97.70;;;;;;5051354;28;20256;-70
2024/01/11 12:36:37;;;;;;;0.00;0.00;;;1.40;97.70;;;;;;5051198;28;20181;-71
2024/01/11 12:39:04;;;;;;;0.08;0.08;;;1.40;96.90;;;;;;5052833;28;20189;-70
2024/01/11 12:41:29;;;;;;;0.10;0.10;;;1.30;96.50;;;;;;5054860;28;20244;-71